createdAt,value
2022-11-16T00:01:12.482Z,89.59
2022-11-16T00:03:40.342Z,89.87
2022-11-16T00:06:08.928Z,89.35
2022-11-16T00:08:38.343Z,89.44
2022-11-16T00:11:09.439Z,89.21
2022-11-16T00:13:38.508Z,88.91
2022-11-16T00:16:07.116Z,89.04
2022-11-16T00:18:35.154Z,89.00
2022-11-16T00:21:04.594Z,89.32
2022-11-16T00:23:32.655Z,89.27
2022-11-16T00:26:04.289Z,88.67
2022-11-16T00:28:33.711Z,89.38
2022-11-16T00:31:03.581Z,89.18
2022-11-16T00:33:31.119Z,89.24
2022-11-16T00:36:00.646Z,88.85
2022-11-16T00:38:28.701Z,89.29
2022-11-16T00:40:56.106Z,89.50
2022-11-16T00:43:23.454Z,89.47
2022-11-16T00:45:52.236Z,89.11
2022-11-16T00:48:19.670Z,89.13
2022-11-16T00:50:47.650Z,88.68
2022-11-16T00:53:17.238Z,89.14
2022-11-16T00:55:46.343Z,89.35
2022-11-16T00:58:16.042Z,89.34
2022-11-16T01:00:45.820Z,88.87
2022-11-16T01:03:14.483Z,89.42
2022-11-16T01:05:41.876Z,89.38
2022-11-16T01:08:09.197Z,89.34
2022-11-16T01:10:40.200Z,88.97
2022-11-16T01:13:11.793Z,88.58
2022-11-16T01:15:39.048Z,89.26
2022-11-16T01:18:06.460Z,88.73
2022-11-16T01:20:35.204Z,89.41
2022-11-16T01:23:02.418Z,89.23
2022-11-16T01:25:29.888Z,88.67
2022-11-16T01:27:57.358Z,88.94
2022-11-16T01:30:33.801Z,89.03
2022-11-16T01:33:05.388Z,88.57
2022-11-16T01:35:33.982Z,88.72
2022-11-16T01:38:01.538Z,89.07
2022-11-16T01:40:29.092Z,89.22
2022-11-16T01:42:56.974Z,88.58
2022-11-16T01:45:34.855Z,88.79
2022-11-16T01:48:05.804Z,88.61
2022-11-16T01:50:36.869Z,88.91
2022-11-16T01:53:06.444Z,88.32
2022-11-16T01:55:47.697Z,88.87
2022-11-16T01:58:28.880Z,88.43
2022-11-16T02:01:09.081Z,89.00
2022-11-16T02:03:44.466Z,88.40
2022-11-16T02:06:32.416Z,89.23
2022-11-16T02:09:53.824Z,88.86
2022-11-16T02:12:52.156Z,88.95
2022-11-16T02:15:29.561Z,88.74
2022-11-16T02:18:21.635Z,88.92
2022-11-16T02:21:04.737Z,88.74
2022-11-16T02:24:04.727Z,88.58
2022-11-16T02:26:53.246Z,88.80
2022-11-16T02:29:28.544Z,88.52
2022-11-16T02:32:02.196Z,88.47
2022-11-16T02:34:34.394Z,88.67
2022-11-16T02:37:04.748Z,88.00
2022-11-16T02:39:34.854Z,88.60
2022-11-16T02:42:08.468Z,88.39
2022-11-16T02:44:40.441Z,88.06
2022-11-16T02:47:13.886Z,88.38
2022-11-16T02:49:45.392Z,88.59
2022-11-16T02:52:15.966Z,88.14
2022-11-16T02:54:43.459Z,88.09
2022-11-16T02:57:44.690Z,88.11
2022-11-16T03:00:21.716Z,88.46
2022-11-16T03:03:00.350Z,88.16
2022-11-16T03:05:33.621Z,88.27
2022-11-16T03:08:13.395Z,87.90
2022-11-16T03:11:01.980Z,88.38
2022-11-16T03:13:33.794Z,88.40
2022-11-16T03:16:08.513Z,87.93
2022-11-16T03:18:39.399Z,88.61
2022-11-16T03:21:14.516Z,88.05
2022-11-16T03:23:45.264Z,87.96
2022-11-16T03:26:16.687Z,88.21
2022-11-16T03:28:51.117Z,88.15
2022-11-16T03:31:25.694Z,87.73
2022-11-16T03:33:56.369Z,87.53
2022-11-16T03:36:30.628Z,87.83
2022-11-16T03:39:02.239Z,87.71
2022-11-16T03:41:33.374Z,87.95
2022-11-16T03:44:01.179Z,88.04
2022-11-16T03:46:30.095Z,88.13
2022-11-16T03:48:59.314Z,88.03
2022-11-16T03:51:30.262Z,87.49
2022-11-16T03:53:58.583Z,87.60
2022-11-16T03:56:26.118Z,87.45
2022-11-16T03:58:53.305Z,87.75
2022-11-16T04:01:20.642Z,87.45
2022-11-16T04:03:50.254Z,87.71
2022-11-16T04:06:38.054Z,87.72
2022-11-16T04:09:25.005Z,87.82
2022-11-16T04:12:11.330Z,87.61
2022-11-16T04:14:58.406Z,87.57
2022-11-16T04:17:48.423Z,87.65
2022-11-16T04:20:36.191Z,87.83
2022-11-16T04:23:25.896Z,87.32
2022-11-16T04:25:53.545Z,87.47
2022-11-16T04:28:25.278Z,87.30
2022-11-16T04:31:17.076Z,87.01
2022-11-16T04:34:30.845Z,87.17
2022-11-16T04:37:19.164Z,87.67
2022-11-16T04:39:47.804Z,87.12
2022-11-16T04:42:15.649Z,87.28
2022-11-16T04:45:04.085Z,87.59
2022-11-16T04:47:40.892Z,87.26
2022-11-16T04:50:08.691Z,87.44
2022-11-16T04:52:37.682Z,87.30
2022-11-16T04:55:08.138Z,87.36
2022-11-16T04:57:35.976Z,87.69
2022-11-16T05:00:06.353Z,87.20
2022-11-16T05:02:35.662Z,86.96
2022-11-16T05:05:03.396Z,87.43
2022-11-16T05:07:31.765Z,87.32
2022-11-16T05:10:09.984Z,87.52
2022-11-16T05:12:38.508Z,87.33
2022-11-16T05:15:09.082Z,86.92
2022-11-16T05:17:36.657Z,87.37
2022-11-16T05:20:28.332Z,86.99
2022-11-16T05:23:00.963Z,87.29
2022-11-16T05:25:36.775Z,86.66
2022-11-16T05:28:07.311Z,86.80
2022-11-16T05:30:38.711Z,86.84
2022-11-16T05:33:05.918Z,86.82
2022-11-16T05:35:38.027Z,86.57
2022-11-16T05:38:05.374Z,86.62
2022-11-16T05:40:38.831Z,87.15
2022-11-16T05:43:06.467Z,86.71
2022-11-16T05:45:39.690Z,86.98
2022-11-16T05:48:08.902Z,86.79
2022-11-16T05:50:42.302Z,86.82
2022-11-16T05:53:19.797Z,86.34
2022-11-16T05:55:49.463Z,86.76
2022-11-16T05:58:18.139Z,86.67
2022-11-16T06:00:46.361Z,86.44
2022-11-16T06:03:14.222Z,86.48
2022-11-16T06:05:41.752Z,86.50
2022-11-16T06:08:12.030Z,86.43
2022-11-16T06:10:39.430Z,86.66
2022-11-16T06:13:08.155Z,86.46
2022-11-16T06:15:37.408Z,86.44
2022-11-16T06:18:05.293Z,86.02
2022-11-16T06:20:33.026Z,86.42
2022-11-16T06:23:00.362Z,86.46
2022-11-16T06:25:30.941Z,86.32
2022-11-16T06:27:58.722Z,86.38
2022-11-16T06:30:27.735Z,86.12
2022-11-16T06:32:55.566Z,86.27
2022-11-16T06:35:22.979Z,86.09
2022-11-16T06:37:50.547Z,86.22
2022-11-16T06:40:18.187Z,85.92
2022-11-16T06:42:45.483Z,85.82
2022-11-16T06:45:14.257Z,86.37
2022-11-16T06:47:47.830Z,86.55
2022-11-16T06:50:19.310Z,85.88
2022-11-16T06:52:47.910Z,86.01
2022-11-16T06:55:16.610Z,86.13
2022-11-16T06:57:44.351Z,85.82
2022-11-16T07:00:12.628Z,85.09
2022-11-16T07:02:41.102Z,85.19
2022-11-16T07:05:14.433Z,84.59
2022-11-16T07:07:42.534Z,84.36
2022-11-16T07:10:10.652Z,84.42
2022-11-16T07:12:38.288Z,84.72
2022-11-16T07:15:07.646Z,84.22
2022-11-16T07:17:38.871Z,84.00
2022-11-16T07:20:07.105Z,83.63
2022-11-16T07:22:35.873Z,82.32
2022-11-16T07:25:04.189Z,82.24
2022-11-16T07:27:31.463Z,82.44
2022-11-16T07:29:59.137Z,82.07
2022-11-16T07:32:43.094Z,82.35
2022-11-16T07:35:19.866Z,81.86
2022-11-16T07:37:48.689Z,81.21
2022-11-16T07:40:16.756Z,81.29
2022-11-16T07:42:45.902Z,80.86
2022-11-16T07:45:34.134Z,80.88
2022-11-16T07:48:07.158Z,80.21
2022-11-16T07:51:01.080Z,80.54
2022-11-16T07:53:31.815Z,80.96
2022-11-16T07:55:59.503Z,81.11
2022-11-16T07:58:30.758Z,80.40
2022-11-16T08:01:04.991Z,80.22
2022-11-16T08:03:34.325Z,79.40
2022-11-16T08:06:06.590Z,79.85
2022-11-16T08:08:35.777Z,79.39
2022-11-16T08:11:04.963Z,79.24
2022-11-16T08:13:35.216Z,78.93
2022-11-16T08:16:07.914Z,79.18
2022-11-16T08:18:36.386Z,78.50
2022-11-16T08:21:05.445Z,78.62
2022-11-16T08:23:33.119Z,78.89
2022-11-16T08:26:03.887Z,78.35
2022-11-16T08:28:32.247Z,78.20
2022-11-16T08:31:01.016Z,78.99
2022-11-16T08:33:29.848Z,78.11
2022-11-16T08:35:57.441Z,77.46
2022-11-16T08:38:25.748Z,78.05
2022-11-16T08:40:55.935Z,77.67
2022-11-16T08:43:25.978Z,77.77
2022-11-16T08:45:53.943Z,78.40
2022-11-16T08:48:22.259Z,77.71
2022-11-16T08:51:15.870Z,78.11
2022-11-16T08:53:37.152Z,77.53
2022-11-16T08:56:05.463Z,77.05
2022-11-16T08:58:34.604Z,77.16
2022-11-16T09:01:07.949Z,77.00
2022-11-16T09:03:35.302Z,77.03
2022-11-16T09:06:02.682Z,77.27
2022-11-16T09:08:30.167Z,77.00
2022-11-16T09:10:57.625Z,76.94
2022-11-16T09:13:25.490Z,76.82
2022-11-16T09:15:57.681Z,76.79
2022-11-16T09:18:25.402Z,76.14
2022-11-16T09:20:52.687Z,75.46
2022-11-16T09:23:25.115Z,75.38
2022-11-16T09:25:52.718Z,75.53
2022-11-16T09:28:21.112Z,74.89
2022-11-16T09:30:50.581Z,74.65
2022-11-16T09:33:19.410Z,74.49
2022-11-16T09:35:47.257Z,73.97
2022-11-16T09:38:20.702Z,73.39
2022-11-16T09:40:54.387Z,73.10
2022-11-16T09:43:42.465Z,72.65
2022-11-16T09:46:21.991Z,72.21
2022-11-16T09:48:52.183Z,72.05
2022-11-16T09:51:22.496Z,71.27
2022-11-16T09:53:56.461Z,71.25
2022-11-16T09:56:25.988Z,70.34
2022-11-16T09:58:58.797Z,69.84
2022-11-16T10:01:29.988Z,69.74
2022-11-16T10:04:06.733Z,68.52
2022-11-16T10:06:44.953Z,67.97
2022-11-16T10:09:13.591Z,67.82
2022-11-16T10:11:59.989Z,67.78
2022-11-16T10:15:01.668Z,67.80
2022-11-16T10:17:43.464Z,67.74
2022-11-16T10:20:33.906Z,67.31
2022-11-16T10:23:10.241Z,67.28
2022-11-16T10:25:43.815Z,67.37
2022-11-16T10:28:26.546Z,66.80
2022-11-16T10:31:00.271Z,66.99
2022-11-16T10:33:35.957Z,66.69
2022-11-16T10:36:12.000Z,66.38
2022-11-16T10:38:40.556Z,66.21
2022-11-16T10:41:18.030Z,66.09
2022-11-16T10:43:45.921Z,65.98
2022-11-16T10:46:20.284Z,66.12
2022-11-16T10:48:56.331Z,66.40
2022-11-16T10:51:25.052Z,66.27
2022-11-16T10:53:53.301Z,66.30
2022-11-16T10:56:24.062Z,66.33
2022-11-16T10:58:56.729Z,66.73
2022-11-16T11:01:36.537Z,66.68
2022-11-16T11:04:16.620Z,66.45
2022-11-16T11:06:46.914Z,66.85
2022-11-16T11:09:24.127Z,67.06
2022-11-16T11:12:18.454Z,67.11
2022-11-16T11:15:01.480Z,67.78
2022-11-16T11:17:32.418Z,68.14
2022-11-16T11:20:02.176Z,67.72
2022-11-16T11:22:33.117Z,67.97
2022-11-16T11:25:03.656Z,67.79
2022-11-16T11:27:34.406Z,67.82
2022-11-16T11:30:02.153Z,67.82
2022-11-16T11:32:34.808Z,67.61
2022-11-16T11:35:03.720Z,67.64
2022-11-16T11:37:36.013Z,67.97
2022-11-16T11:40:24.031Z,68.17
2022-11-16T11:42:59.612Z,67.58
2022-11-16T11:45:36.867Z,68.23
2022-11-16T11:48:12.263Z,67.97
2022-11-16T11:50:46.015Z,67.69
2022-11-16T11:53:29.272Z,68.26
2022-11-16T11:55:58.467Z,68.15
2022-11-16T11:58:30.319Z,68.22
2022-11-16T12:01:17.433Z,67.86
2022-11-16T12:04:30.134Z,68.04
2022-11-16T12:07:07.890Z,67.59
2022-11-16T12:09:46.484Z,67.93
2022-11-16T12:12:28.881Z,68.02
2022-11-16T12:15:08.200Z,68.21
2022-11-16T12:17:48.919Z,67.95
2022-11-16T12:20:28.449Z,67.58
2022-11-16T12:23:07.196Z,67.80
2022-11-16T12:25:43.282Z,67.95
2022-11-16T12:28:29.751Z,67.39
2022-11-16T12:31:11.382Z,67.89
2022-11-16T12:33:49.036Z,68.10
2022-11-16T12:36:38.358Z,67.88
2022-11-16T12:39:20.596Z,66.98
2022-11-16T12:42:18.536Z,67.07
2022-11-16T12:45:11.178Z,67.18
2022-11-16T12:48:00.547Z,67.12
2022-11-16T12:50:43.916Z,67.51
2022-11-16T12:53:23.835Z,66.63
2022-11-16T12:56:01.145Z,66.56
2022-11-16T12:58:39.423Z,66.86
2022-11-16T13:01:18.102Z,66.93
2022-11-16T13:03:50.970Z,66.76
2022-11-16T13:06:20.531Z,66.94
2022-11-16T13:08:55.765Z,66.69
2022-11-16T13:11:27.460Z,66.38
2022-11-16T13:14:00.993Z,66.48
2022-11-16T13:16:29.667Z,66.41
2022-11-16T13:18:58.615Z,66.87
2022-11-16T13:21:34.763Z,66.62
2022-11-16T13:24:23.863Z,66.73
2022-11-16T13:26:59.232Z,66.56
2022-11-16T13:29:36.300Z,66.25
2022-11-16T13:32:11.266Z,66.53
2022-11-16T13:34:40.299Z,66.92
2022-11-16T13:37:40.801Z,66.67
2022-11-16T13:40:26.446Z,67.01
2022-11-16T13:43:08.712Z,67.08
2022-11-16T13:45:41.758Z,66.92
2022-11-16T13:48:18.606Z,67.03
2022-11-16T13:50:52.940Z,67.29
2022-11-16T13:56:16.126Z,66.95
2022-11-16T13:58:46.653Z,66.70
2022-11-16T14:01:16.529Z,66.61
2022-11-16T14:03:45.060Z,67.64
2022-11-16T14:06:44.541Z,66.58
2022-11-16T14:09:42.785Z,67.66
2022-11-16T14:12:55.968Z,66.79
2022-11-16T14:15:32.012Z,66.88
2022-11-16T14:18:31.897Z,66.87
2022-11-16T14:21:03.268Z,67.42
2022-11-16T14:23:52.038Z,66.96
2022-11-16T14:26:24.667Z,66.80
2022-11-16T14:29:25.328Z,66.91
2022-11-16T14:31:55.060Z,67.39
2022-11-16T14:34:28.330Z,67.88
2022-11-16T14:36:56.239Z,67.30
2022-11-16T14:39:33.785Z,67.60
2022-11-16T14:42:04.603Z,67.61
2022-11-16T14:44:37.793Z,67.23
2022-11-16T14:47:06.316Z,67.88
2022-11-16T14:49:37.787Z,67.96
2022-11-16T14:52:08.371Z,67.24
2022-11-16T14:54:41.652Z,67.62
2022-11-16T14:57:18.030Z,67.32
2022-11-16T14:59:45.618Z,67.62
2022-11-16T15:02:19.299Z,67.37
2022-11-16T15:04:48.785Z,68.06
2022-11-16T15:07:18.493Z,67.70
2022-11-16T15:09:49.885Z,68.74
2022-11-16T15:12:37.996Z,68.26
2022-11-16T15:15:13.506Z,68.56
2022-11-16T15:17:43.069Z,68.39
2022-11-16T15:20:20.014Z,68.64
2022-11-16T15:22:50.638Z,68.77
2022-11-16T15:25:28.944Z,68.63
2022-11-16T15:27:58.203Z,68.30
2022-11-16T15:30:28.107Z,69.19
2022-11-16T15:32:55.811Z,69.55
2022-11-16T15:35:28.405Z,69.14
2022-11-16T15:38:03.066Z,68.78
2022-11-16T15:40:30.837Z,69.96
2022-11-16T15:43:00.915Z,69.15
2022-11-16T15:45:29.778Z,69.49
2022-11-16T15:48:00.637Z,70.07
2022-11-16T15:50:29.671Z,70.02
2022-11-16T15:52:59.785Z,69.74
2022-11-16T15:55:36.887Z,69.58
2022-11-16T15:58:07.509Z,70.44
2022-11-16T16:00:36.661Z,70.34
2022-11-16T16:03:08.192Z,70.60
2022-11-16T16:05:39.850Z,69.90
2022-11-16T16:08:25.623Z,70.15
2022-11-16T16:11:27.534Z,70.92
2022-11-16T16:13:59.015Z,70.11
2022-11-16T16:16:30.272Z,71.20
2022-11-16T16:19:04.929Z,70.54
2022-11-16T16:21:45.005Z,70.84
2022-11-16T16:24:36.336Z,71.34
2022-11-16T16:27:10.498Z,70.85
2022-11-16T16:29:38.495Z,71.22
2022-11-16T16:32:06.610Z,70.98
2022-11-16T16:34:37.784Z,71.28
2022-11-16T16:37:11.923Z,71.36
2022-11-16T16:39:40.743Z,71.30
2022-11-16T16:42:12.438Z,70.61
2022-11-16T16:44:39.885Z,70.84
2022-11-16T16:47:08.124Z,71.18
2022-11-16T16:49:35.785Z,70.97
2022-11-16T16:52:04.537Z,71.38
2022-11-16T16:54:33.909Z,70.67
2022-11-16T16:57:04.204Z,71.38
2022-11-16T16:59:31.920Z,71.07
2022-11-16T17:01:59.979Z,71.37
2022-11-16T17:04:27.501Z,71.27
2022-11-16T17:06:54.870Z,71.87
2022-11-16T17:09:22.776Z,71.02
2022-11-16T17:11:51.351Z,71.23
2022-11-16T17:14:19.917Z,71.50
2022-11-16T17:16:47.998Z,71.94
2022-11-16T17:19:15.348Z,72.03
2022-11-16T17:21:42.716Z,71.87
2022-11-16T17:24:11.045Z,72.12
2022-11-16T17:26:38.649Z,71.78
2022-11-16T17:29:07.281Z,71.79
2022-11-16T17:31:35.059Z,71.81
2022-11-16T17:34:02.581Z,72.31
2022-11-16T17:36:29.810Z,72.49
2022-11-16T17:38:58.164Z,72.08
2022-11-16T17:41:25.905Z,72.14
2022-11-16T17:43:55.987Z,72.57
2022-11-16T17:46:26.964Z,72.45
2022-11-16T17:48:54.224Z,72.40
2022-11-16T17:51:24.215Z,72.27
2022-11-16T17:53:51.995Z,72.86
2022-11-16T17:56:21.873Z,72.83
2022-11-16T17:58:52.956Z,72.88
2022-11-16T18:01:20.753Z,72.60
2022-11-16T18:03:49.639Z,72.56
2022-11-16T18:06:18.900Z,72.87
2022-11-16T18:08:46.714Z,72.55
2022-11-16T18:11:16.467Z,72.71
2022-11-16T18:13:44.424Z,73.28
2022-11-16T18:16:14.006Z,72.83
2022-11-16T18:18:42.728Z,73.45
2022-11-16T18:21:20.013Z,73.11
2022-11-16T18:23:48.382Z,73.22
2022-11-16T18:26:17.502Z,72.96
2022-11-16T18:28:48.380Z,72.99
2022-11-16T18:31:18.071Z,72.96
2022-11-16T18:33:45.721Z,73.29
2022-11-16T18:36:15.081Z,73.44
2022-11-16T18:38:42.830Z,73.31
2022-11-16T18:41:17.436Z,72.98
2022-11-16T18:43:51.022Z,73.05
2022-11-16T18:46:19.200Z,73.43
2022-11-16T18:48:47.312Z,73.43
2022-11-16T18:51:17.887Z,73.50
2022-11-16T18:53:45.724Z,73.24
2022-11-16T18:56:13.831Z,73.49
2022-11-16T18:58:50.283Z,73.57
2022-11-16T19:01:20.910Z,73.72
2022-11-16T19:03:48.267Z,73.89
2022-11-16T19:06:18.110Z,73.60
2022-11-16T19:08:51.830Z,73.70
2022-11-16T19:11:24.085Z,74.38
2022-11-16T19:13:53.428Z,74.04
2022-11-16T19:16:20.888Z,74.19
2022-11-16T19:18:48.574Z,74.15
2022-11-16T19:21:21.954Z,74.56
2022-11-16T19:23:50.989Z,74.48
2022-11-16T19:26:21.938Z,73.68
2022-11-16T19:28:51.061Z,74.09
2022-11-16T19:31:21.844Z,74.18
2022-11-16T19:33:54.013Z,74.45
2022-11-16T19:36:23.481Z,74.48
2022-11-16T19:38:50.966Z,74.27
2022-11-16T19:41:22.694Z,74.48
2022-11-16T19:43:52.842Z,74.31
2022-11-16T19:46:24.463Z,74.62
2022-11-16T19:48:52.243Z,74.28
2022-11-16T19:51:21.976Z,74.89
2022-11-16T19:53:50.804Z,74.42
2022-11-16T19:56:20.063Z,74.73
2022-11-16T19:58:47.941Z,74.93
2022-11-16T20:01:17.374Z,74.92
2022-11-16T20:03:45.934Z,74.30
2022-11-16T20:06:15.209Z,74.73
2022-11-16T20:08:46.588Z,74.63
2022-11-16T20:11:17.321Z,75.23
2022-11-16T20:13:44.858Z,75.12
2022-11-16T20:16:13.501Z,74.83
2022-11-16T20:18:42.576Z,75.01
2022-11-16T20:21:13.420Z,74.98
2022-11-16T20:23:40.731Z,74.95
2022-11-16T20:26:09.989Z,75.30
2022-11-16T20:28:40.389Z,75.11
2022-11-16T20:31:09.010Z,75.08
2022-11-16T20:33:36.954Z,75.04
2022-11-16T20:36:06.572Z,74.97
2022-11-16T20:38:34.380Z,75.33
2022-11-16T20:41:08.645Z,75.85
2022-11-16T20:43:36.324Z,75.25
2022-11-16T20:46:05.565Z,74.98
2022-11-16T20:48:32.945Z,75.54
2022-11-16T20:51:00.145Z,75.54
2022-11-16T20:53:27.734Z,75.64
2022-11-16T20:55:57.543Z,75.47
2022-11-16T20:58:25.266Z,75.19
2022-11-16T21:00:52.632Z,75.36
2022-11-16T21:03:21.393Z,75.51
2022-11-16T21:05:52.498Z,75.38
2022-11-16T21:08:19.849Z,75.25
2022-11-16T21:10:48.497Z,75.36
2022-11-16T21:13:36.893Z,75.23
2022-11-16T21:16:06.841Z,75.56
2022-11-16T21:18:35.568Z,75.35
2022-11-16T21:21:04.804Z,75.64
2022-11-16T21:23:34.795Z,75.63
2022-11-16T21:26:03.376Z,75.84
2022-11-16T21:28:30.578Z,75.35
2022-11-16T21:30:58.646Z,76.22
2022-11-16T21:33:26.152Z,75.87
2022-11-16T21:35:55.233Z,76.03
2022-11-16T21:38:25.684Z,75.49
2022-11-16T21:40:52.930Z,75.87
2022-11-16T21:43:20.101Z,75.66
2022-11-16T21:45:48.438Z,76.12
2022-11-16T21:48:15.686Z,75.77
2022-11-16T21:50:43.545Z,75.43
2022-11-16T21:53:12.165Z,75.42
2022-11-16T21:55:39.539Z,75.41
2022-11-16T21:58:06.972Z,76.21
2022-11-16T22:00:34.294Z,75.96
2022-11-16T22:03:01.835Z,75.75
2022-11-16T22:05:47.576Z,75.99
2022-11-16T22:08:16.207Z,76.23
2022-11-16T22:10:43.751Z,76.19
2022-11-16T22:13:11.123Z,75.82
2022-11-16T22:15:38.574Z,75.79
2022-11-16T22:18:06.080Z,75.90
2022-11-16T22:20:33.533Z,75.77
2022-11-16T22:23:00.879Z,76.64
2022-11-16T22:25:29.662Z,76.73
2022-11-16T22:28:25.991Z,76.10
2022-11-16T22:30:48.739Z,76.87
2022-11-16T22:33:18.767Z,76.59
2022-11-16T22:35:47.236Z,76.54
2022-11-16T22:38:14.443Z,76.28
2022-11-16T22:40:48.868Z,76.50
2022-11-16T22:43:16.168Z,76.78
2022-11-16T22:45:43.514Z,76.22
2022-11-16T22:48:10.882Z,76.62
2022-11-16T22:50:38.127Z,76.07
2022-11-16T22:53:05.391Z,76.34
2022-11-16T22:55:35.135Z,76.17
2022-11-16T22:58:04.108Z,76.84
2022-11-16T23:00:33.388Z,76.10
2022-11-16T23:03:04.183Z,76.62
2022-11-16T23:05:31.485Z,76.75
2022-11-16T23:07:59.094Z,76.50
2022-11-16T23:10:26.402Z,76.66
2022-11-16T23:13:12.692Z,76.59
2022-11-16T23:15:50.090Z,76.67
2022-11-16T23:18:19.659Z,76.50
2022-11-16T23:21:05.546Z,76.33
2022-11-16T23:23:51.522Z,76.80
2022-11-16T23:26:41.813Z,76.12
2022-11-16T23:29:10.718Z,76.20
2022-11-16T23:31:39.337Z,76.20
2022-11-16T23:34:06.723Z,76.60
2022-11-16T23:36:34.049Z,76.71
2022-11-16T23:39:01.299Z,76.29
2022-11-16T23:41:47.701Z,76.90
2022-11-16T23:44:14.680Z,76.85
2022-11-16T23:46:43.408Z,76.61
2022-11-16T23:49:10.658Z,77.19
2022-11-16T23:51:37.908Z,76.27
2022-11-16T23:54:06.907Z,76.45
2022-11-16T23:56:34.128Z,76.48
2022-11-16T23:59:01.500Z,76.53
